Roslyn, New York
Current Conditions -  °F | °C
As of 4:51 PM on Saturday 22 Nov 2014 (Local Time) from KLGA Reporting Station
Broken Clouds Broken Clouds  
Wind Chill: 35°   Ceiling: 6000
Heat Index: 42°   Visibility: 10mi
Dew Point: 17°   Wind: 14mph
Humidity: 37%   Direction: 230°SW
Pressure: 30.26"   Gusts: 24mph
Location:  40.8°N, 73.65°W
Report Text: KLGA 222151Z 23012G21KT 10SM FEW050 BKN060 BKN260 06/M08 A3026 RMK AO2 SLP245 T00561083
Loading
Personal Weather Stations






























Interactive Weather Map New forecast layout! Learn more

10-Day Weather Forecast

Advertisements
Track Severe Weather on mobile